This is the latest recevied weather packets stored in our database for station/object KC7RJK-2. If no packets are shown the sender has not sent any weather packets the latest 10 day(s).
| Time | Temp. | Humidity | Pressure | Rain* | Wind** | Luminosity | Snow |
|---|---|---|---|---|---|---|---|
| 1778041209 | 13.89° C | 87% | 1016 hPa | 0 mm | - | - | - |
| 1778040609 | 13.89° C | 86% | 1016 hPa | 0 mm | - | - | - |
| 1778040009 | 14.44° C | 85% | 1015.9 hPa | 0 mm | - | - | - |
| 1778039409 | 14.44° C | 84% | 1015.7 hPa | 0 mm | - | - | - |
| 1778038809 | 15° C | 83% | 1015.5 hPa | 0 mm | - | - | - |
| 1778038209 | 15.56° C | 81% | 1015.5 hPa | 0 mm | - | - | - |
| 1778037608 | 16.11° C | 81% | 1015.3 hPa | 0 mm | - | - | - |
| 1778037009 | 16.11° C | 79% | 1015.3 hPa | 0 mm | - | - | - |
| 1778036410 | 16.67° C | 78% | 1015.3 hPa | 0 mm | - | - | - |
| 1778035808 | 17.22° C | 77% | 1015.2 hPa | 0 mm | - | - | - |
| 1778035209 | 17.22° C | 76% | 1015.1 hPa | 0 mm | - | - | - |
| 1778034608 | 17.78° C | 75% | 1015 hPa | 0 mm | - | - | - |
| 1778034010 | 18.33° C | 74% | 1015 hPa | 0 mm | - | - | - |
| 1778033409 | 18.89° C | 73% | 1015 hPa | 0 mm | - | - | - |
| 1778032809 | 20° C | 69% | 1015 hPa | 0 mm | - | - | - |
| 1778032208 | 20.56° C | 69% | 1014.9 hPa | 0 mm | - | - | - |
| 1778031608 | 20.56° C | 69% | 1014.8 hPa | 0 mm | - | - | - |
| 1778031012 | 20° C | 70% | 1014.8 hPa | 0 mm | - | - | - |
| 1778030410 | 20° C | 71% | 1014.8 hPa | 0 mm | - | - | - |
| 1778029809 | 20° C | 70% | 1014.8 hPa | 0 mm | - | - | - |
| 1778029211 | 20.56° C | 68% | 1014.8 hPa | 0 mm | - | - | - |
| 1778028609 | 20° C | 70% | 1014.8 hPa | 0 mm | - | - | - |
| 1778028009 | 20.56° C | 67% | 1014.8 hPa | 0 mm | - | - | - |
| 1778027409 | 21.11° C | 66% | 1014.9 hPa | 0 mm | - | - | - |
| 1778026808 | 21.11° C | 67% | 1014.9 hPa | 0 mm | - | - | - |
* Rain latest hour (hover to see other rain measurements)
** Current wind speed in m/s (hover to see current wind gust speed)